createdAt,value
2023-01-05T00:00:15.894Z,933
2023-01-05T00:02:20.186Z,896
2023-01-05T00:03:15.911Z,834
2023-01-05T00:04:15.883Z,702
2023-01-05T00:05:15.917Z,826
2023-01-05T00:07:16.056Z,805
2023-01-05T00:08:15.863Z,732
2023-01-05T00:09:15.863Z,795
2023-01-05T00:10:15.866Z,686
2023-01-05T00:12:16.066Z,686
2023-01-05T00:13:15.865Z,854
2023-01-05T00:14:15.907Z,961
2023-01-05T00:15:15.927Z,964
2023-01-05T00:17:16.056Z,954
2023-01-05T00:18:15.914Z,733
2023-01-05T00:19:15.852Z,985
2023-01-05T00:20:15.952Z,1002
2023-01-05T00:22:16.081Z,758
2023-01-05T00:23:15.859Z,762
2023-01-05T00:24:15.917Z,982
2023-01-05T00:25:15.924Z,768
2023-01-05T00:27:16.127Z,961
2023-01-05T00:28:15.918Z,987
2023-01-05T00:29:15.866Z,1042
2023-01-05T00:30:15.923Z,954
2023-01-05T00:32:16.049Z,1096
2023-01-05T00:33:15.870Z,907
2023-01-05T00:34:15.950Z,1113
2023-01-05T00:35:15.927Z,781
2023-01-05T00:37:16.102Z,785
2023-01-05T00:38:15.891Z,711
2023-01-05T00:39:15.956Z,924
2023-01-05T00:40:15.863Z,711
2023-01-05T00:42:16.073Z,916
2023-01-05T00:43:15.927Z,777
2023-01-05T00:44:15.868Z,811
2023-01-05T00:45:15.879Z,768
2023-01-05T00:47:16.081Z,822
2023-01-05T00:48:15.936Z,909
2023-01-05T00:49:15.959Z,811
2023-01-05T00:50:15.925Z,997
2023-01-05T00:52:16.088Z,995
2023-01-05T00:53:15.877Z,985
2023-01-05T00:54:15.879Z,775
2023-01-05T00:55:15.870Z,1014
2023-01-05T00:57:16.054Z,995
2023-01-05T00:58:15.882Z,791
2023-01-05T00:59:15.962Z,1034
2023-01-05T01:00:15.981Z,826
2023-01-05T01:02:16.207Z,1007
2023-01-05T01:03:15.971Z,964
2023-01-05T01:04:15.878Z,987
2023-01-05T01:05:15.980Z,924
2023-01-05T01:07:16.085Z,1093
2023-01-05T01:08:15.871Z,1072
2023-01-05T01:09:15.887Z,869
2023-01-05T01:10:15.965Z,1056
2023-01-05T01:12:16.089Z,1075
2023-01-05T01:13:15.903Z,1063
2023-01-05T01:14:15.881Z,1072
2023-01-05T01:15:15.889Z,1158
2023-01-05T01:16:15.916Z,822
2023-01-05T01:17:16.134Z,826
2023-01-05T01:18:15.919Z,749
2023-01-05T01:19:15.896Z,1066
2023-01-05T01:20:15.953Z,749
2023-01-05T01:21:15.904Z,1072
2023-01-05T01:22:16.088Z,1110
2023-01-05T01:23:15.883Z,1107
2023-01-05T01:24:15.945Z,1066
2023-01-05T01:25:15.974Z,974
2023-01-05T01:26:15.953Z,1060
2023-01-05T01:27:16.093Z,1096
2023-01-05T01:28:16.002Z,1110
2023-01-05T01:29:15.940Z,1075
2023-01-05T01:30:15.988Z,924
2023-01-05T01:31:15.957Z,1135
2023-01-05T01:32:16.096Z,812
2023-01-05T01:33:15.956Z,1053
2023-01-05T01:34:15.890Z,828
2023-01-05T01:35:15.948Z,974
2023-01-05T01:36:15.898Z,1078
2023-01-05T01:37:16.073Z,843
2023-01-05T01:38:15.896Z,1091
2023-01-05T01:39:15.980Z,907
2023-01-05T01:40:15.942Z,1093
2023-01-05T01:42:16.157Z,1135
2023-01-05T01:43:15.926Z,1183
2023-01-05T01:44:15.978Z,880
2023-01-05T01:45:15.903Z,940
2023-01-05T01:47:16.078Z,982
2023-01-05T01:48:15.914Z,1037
2023-01-05T01:49:15.954Z,1081
2023-01-05T01:50:15.930Z,857
2023-01-05T01:52:16.071Z,873
2023-01-05T01:53:15.951Z,1104
2023-01-05T01:54:15.980Z,1072
2023-01-05T01:55:15.981Z,845
2023-01-05T01:57:16.103Z,885
2023-01-05T01:58:15.955Z,1031
2023-01-05T01:59:15.989Z,814
2023-01-05T02:00:15.919Z,1107
2023-01-05T02:02:16.183Z,1088
2023-01-05T02:03:15.911Z,812
2023-01-05T02:04:15.932Z,873
2023-01-05T02:05:15.903Z,1096
2023-01-05T02:07:16.102Z,1009
2023-01-05T02:08:15.962Z,911
2023-01-05T02:09:15.910Z,1164
2023-01-05T02:10:15.959Z,947
2023-01-05T02:12:16.116Z,894
2023-01-05T02:13:15.999Z,1152
2023-01-05T02:14:15.907Z,947
2023-01-05T02:15:15.969Z,1143
2023-01-05T02:17:16.108Z,889
2023-01-05T02:18:15.914Z,1130
2023-01-05T02:19:15.904Z,1186
2023-01-05T02:20:15.923Z,951
2023-01-05T02:22:16.090Z,930
2023-01-05T02:23:15.922Z,1155
2023-01-05T02:24:15.927Z,1152
2023-01-05T02:25:15.909Z,896
2023-01-05T02:27:16.087Z,1155
2023-01-05T02:28:15.900Z,942
2023-01-05T02:29:15.966Z,1110
2023-01-05T02:30:15.987Z,933
2023-01-05T02:32:16.116Z,1229
2023-01-05T02:33:15.972Z,964
2023-01-05T02:34:15.995Z,902
2023-01-05T02:35:16.010Z,1124
2023-01-05T02:37:16.116Z,896
2023-01-05T02:38:15.981Z,1138
2023-01-05T02:39:15.915Z,867
2023-01-05T02:40:15.928Z,1152
2023-01-05T02:42:16.116Z,1164
2023-01-05T02:43:15.915Z,1104
2023-01-05T02:44:15.903Z,911
2023-01-05T02:45:15.920Z,1146
2023-01-05T02:47:16.095Z,809
2023-01-05T02:48:15.983Z,1066
2023-01-05T02:49:15.978Z,871
2023-01-05T02:50:15.980Z,847
2023-01-05T02:52:16.104Z,1072
2023-01-05T02:53:15.923Z,1007
2023-01-05T02:54:15.987Z,1060
2023-01-05T02:55:16.008Z,847
2023-01-05T02:57:16.093Z,1066
2023-01-05T02:58:15.930Z,899
2023-01-05T02:59:15.949Z,1124
2023-01-05T03:00:15.916Z,1124
2023-01-05T03:02:16.222Z,1164
2023-01-05T03:03:15.952Z,830
2023-01-05T03:04:15.936Z,974
2023-01-05T03:05:15.931Z,1069
2023-01-05T03:07:16.135Z,930
2023-01-05T03:08:16.013Z,1056
2023-01-05T03:09:15.984Z,775
2023-01-05T03:10:16.015Z,1029
2023-01-05T03:12:16.127Z,971
2023-01-05T03:13:15.986Z,992
2023-01-05T03:14:16.009Z,816
2023-01-05T03:15:15.949Z,840
2023-01-05T03:17:16.131Z,1078
2023-01-05T03:18:15.985Z,834
2023-01-05T03:19:15.926Z,1058
2023-01-05T03:20:15.990Z,1004
2023-01-05T03:22:16.110Z,1042
2023-01-05T03:23:15.928Z,642
2023-01-05T03:24:15.942Z,773
2023-01-05T03:25:16.002Z,791
2023-01-05T03:27:16.147Z,764
2023-01-05T03:28:15.930Z,1004
2023-01-05T03:29:15.931Z,992
2023-01-05T03:30:15.980Z,1002
2023-01-05T03:32:16.105Z,951
2023-01-05T03:33:15.933Z,1012
2023-01-05T03:34:15.946Z,818
2023-01-05T03:35:15.932Z,1081
2023-01-05T03:37:16.111Z,1037
2023-01-05T03:38:18.217Z,997
2023-01-05T03:39:15.946Z,627
2023-01-05T03:40:15.935Z,1034
2023-01-05T03:42:16.154Z,1261
2023-01-05T03:43:15.951Z,1042
2023-01-05T03:44:15.991Z,1066
2023-01-05T03:45:15.995Z,1037
2023-01-05T03:47:16.150Z,1075
2023-01-05T03:48:15.994Z,828
2023-01-05T03:49:15.999Z,1007
2023-01-05T03:50:16.009Z,720
2023-01-05T03:52:16.155Z,822
2023-01-05T03:53:16.004Z,795
2023-01-05T03:54:16.035Z,1058
2023-01-05T03:55:15.945Z,828
2023-01-05T03:57:16.151Z,783
2023-01-05T03:58:16.019Z,1017
2023-01-05T03:59:16.006Z,801
2023-01-05T04:00:16.020Z,1048
2023-01-05T04:02:16.230Z,811
2023-01-05T04:03:16.054Z,961
2023-01-05T04:04:16.013Z,746
2023-01-05T04:05:16.001Z,940
2023-01-05T04:07:16.216Z,907
2023-01-05T04:08:16.003Z,775
2023-01-05T04:09:16.013Z,665
2023-01-05T04:10:16.005Z,907
2023-01-05T04:12:16.162Z,891
2023-01-05T04:13:16.038Z,971
2023-01-05T04:14:16.045Z,764
2023-01-05T04:15:16.024Z,964
2023-01-05T04:17:16.232Z,969
2023-01-05T04:18:16.034Z,956
2023-01-05T04:19:16.012Z,751
2023-01-05T04:20:15.992Z,885
2023-01-05T04:22:16.140Z,959
2023-01-05T04:23:15.957Z,711
2023-01-05T04:24:15.954Z,820
2023-01-05T04:25:15.965Z,704
2023-01-05T04:27:16.175Z,987
2023-01-05T04:28:16.022Z,845
2023-01-05T04:29:15.956Z,990
2023-01-05T04:30:15.973Z,942
2023-01-05T04:32:16.150Z,1017
2023-01-05T04:33:15.967Z,812
2023-01-05T04:34:15.966Z,1072
2023-01-05T04:35:16.015Z,816
2023-01-05T04:37:16.133Z,726
2023-01-05T04:38:15.965Z,1066
2023-01-05T04:39:15.981Z,1066
2023-01-05T04:40:15.958Z,799
2023-01-05T04:42:16.252Z,809
2023-01-05T04:43:16.019Z,990
2023-01-05T04:44:16.025Z,987
2023-01-05T04:45:16.048Z,812
2023-01-05T04:47:16.169Z,738
2023-01-05T04:48:16.041Z,753
2023-01-05T04:49:16.023Z,956
2023-01-05T04:50:16.087Z,1009
2023-01-05T04:52:16.179Z,1048
2023-01-05T04:53:16.024Z,980
2023-01-05T04:54:16.029Z,969
2023-01-05T04:55:16.022Z,1045
2023-01-05T04:57:16.191Z,1069
2023-01-05T04:58:16.056Z,1132
2023-01-05T04:59:15.967Z,1096
2023-01-05T05:00:16.055Z,811
2023-01-05T05:02:16.243Z,840
2023-01-05T05:03:16.034Z,997
2023-01-05T05:04:16.017Z,1045
2023-01-05T05:05:15.968Z,818
2023-01-05T05:07:16.179Z,889
2023-01-05T05:08:16.018Z,755
2023-01-05T05:09:15.973Z,1069
2023-01-05T05:10:15.979Z,655
2023-01-05T05:12:16.160Z,1060
2023-01-05T05:13:16.041Z,1174
2023-01-05T05:14:15.970Z,1161
2023-01-05T05:15:16.035Z,1207
2023-01-05T05:17:16.152Z,899
2023-01-05T05:18:15.986Z,864
2023-01-05T05:19:16.034Z,1091
2023-01-05T05:20:16.039Z,896
2023-01-05T05:22:16.206Z,1066
2023-01-05T05:23:16.033Z,1152
2023-01-05T05:24:16.000Z,1146
2023-01-05T05:25:15.986Z,1336
2023-01-05T05:27:16.170Z,992
2023-01-05T05:28:15.981Z,921
2023-01-05T05:29:16.043Z,1199
2023-01-05T05:30:16.046Z,947
2023-01-05T05:32:16.224Z,1138
2023-01-05T05:33:15.977Z,1124
2023-01-05T05:34:15.982Z,1149
2023-01-05T05:35:16.036Z,909
2023-01-05T05:37:16.185Z,998
2023-01-05T05:38:16.042Z,997
2023-01-05T05:39:16.103Z,1329
2023-01-05T05:40:16.041Z,1031
2023-01-05T05:42:16.267Z,1135
2023-01-05T05:43:16.041Z,1307
2023-01-05T05:44:16.060Z,1048
2023-01-05T05:45:16.048Z,1370
2023-01-05T05:47:16.193Z,1345
2023-01-05T05:48:16.051Z,1081
2023-01-05T05:49:16.089Z,1393
2023-01-05T05:50:16.038Z,1414
2023-01-05T05:52:16.241Z,1401
2023-01-05T05:53:16.046Z,1102
2023-01-05T05:54:16.051Z,1248
2023-01-05T05:55:16.088Z,1432
2023-01-05T05:57:16.196Z,1451
2023-01-05T05:58:16.000Z,1099
2023-01-05T05:59:15.993Z,1277
2023-01-05T06:00:15.996Z,1183
2023-01-05T06:02:16.239Z,935
2023-01-05T06:03:16.067Z,1172
2023-01-05T06:04:16.005Z,911
2023-01-05T06:05:15.999Z,1261
2023-01-05T06:07:16.188Z,921
2023-01-05T06:08:15.994Z,1161
2023-01-05T06:09:16.038Z,998
2023-01-05T06:10:16.053Z,1255
2023-01-05T06:12:16.211Z,961
2023-01-05T06:13:16.015Z,1251
2023-01-05T06:14:16.028Z,992
2023-01-05T06:15:16.014Z,1248
2023-01-05T06:17:16.203Z,1214
2023-01-05T06:18:15.995Z,869
2023-01-05T06:19:16.052Z,1004
2023-01-05T06:20:16.088Z,1063
2023-01-05T06:22:16.198Z,871
2023-01-05T06:23:16.055Z,1207
2023-01-05T06:24:16.066Z,1196
2023-01-05T06:25:16.063Z,1183
2023-01-05T06:27:16.216Z,1045
2023-01-05T06:28:20.048Z,1345
2023-01-05T06:29:16.068Z,1313
2023-01-05T06:30:16.114Z,964
2023-01-05T06:32:16.232Z,1352
2023-01-05T06:33:16.075Z,921
2023-01-05T06:34:16.061Z,857
2023-01-05T06:35:16.073Z,1141
2023-01-05T06:37:16.221Z,954
2023-01-05T06:38:16.071Z,1277
2023-01-05T06:39:16.069Z,998
2023-01-05T06:40:16.073Z,1081
2023-01-05T06:42:20.292Z,902
2023-01-05T06:43:16.083Z,1277
2023-01-05T06:44:16.070Z,1255
2023-01-05T06:45:16.012Z,969
2023-01-05T06:47:16.183Z,919
2023-01-05T06:48:16.007Z,1110
2023-01-05T06:49:16.032Z,1072
2023-01-05T06:50:16.002Z,826
2023-01-05T06:52:16.952Z,880
2023-01-05T06:53:16.073Z,966
2023-01-05T06:54:16.010Z,1219
2023-01-05T06:55:16.079Z,1258
2023-01-05T06:57:16.215Z,1255
2023-01-05T06:58:16.064Z,911
2023-01-05T06:59:16.095Z,1199
2023-01-05T07:00:16.086Z,951
2023-01-05T07:02:16.261Z,1141
2023-01-05T07:03:16.012Z,899
2023-01-05T07:04:16.082Z,1186
2023-01-05T07:05:16.077Z,911
2023-01-05T07:07:16.200Z,1214
2023-01-05T07:08:16.011Z,880
2023-01-05T07:09:16.025Z,1242
2023-01-05T07:10:16.068Z,1222
2023-01-05T07:12:16.209Z,1235
2023-01-05T07:13:16.021Z,942
2023-01-05T07:14:16.077Z,1121
2023-01-05T07:15:16.077Z,990
2023-01-05T07:17:16.188Z,1004
2023-01-05T07:18:16.017Z,1004
2023-01-05T07:19:16.113Z,1297
2023-01-05T07:20:16.028Z,1323
2023-01-05T07:22:16.216Z,1014
2023-01-05T07:23:16.026Z,1196
2023-01-05T07:24:16.034Z,1180
2023-01-05T07:25:16.015Z,914
2023-01-05T07:27:16.234Z,611
2023-01-05T07:28:16.082Z,919
2023-01-05T07:29:16.023Z,1251
2023-01-05T07:30:16.037Z,1290
2023-01-05T07:32:16.235Z,1290
2023-01-05T07:33:16.023Z,1421
2023-01-05T07:34:16.025Z,1107
2023-01-05T07:35:16.078Z,1407
2023-01-05T07:37:16.239Z,1342
2023-01-05T07:38:16.092Z,998
2023-01-05T07:39:16.026Z,1277
2023-01-05T07:40:16.076Z,1251
2023-01-05T07:42:16.222Z,1113
2023-01-05T07:43:16.093Z,1258
2023-01-05T07:44:16.084Z,985
2023-01-05T07:45:16.092Z,1310
2023-01-05T07:47:16.242Z,1007
2023-01-05T07:48:19.020Z,1261
2023-01-05T07:49:16.112Z,956
2023-01-05T07:50:16.085Z,935
2023-01-05T07:52:16.315Z,1069
2023-01-05T07:53:16.091Z,964
2023-01-05T07:54:16.088Z,1329
2023-01-05T07:55:16.087Z,1017
2023-01-05T07:57:16.260Z,1320
2023-01-05T07:58:16.122Z,1294
2023-01-05T07:59:16.088Z,1307
2023-01-05T08:00:16.113Z,1104
2023-01-05T08:02:16.431Z,1320
2023-01-05T08:03:16.129Z,1169
2023-01-05T08:04:16.119Z,1307
2023-01-05T08:05:16.076Z,1012
2023-01-05T08:07:16.214Z,1381
2023-01-05T08:08:20.697Z,1155
2023-01-05T08:09:16.040Z,1444
2023-01-05T08:10:16.062Z,1525
2023-01-05T08:12:16.224Z,1410
2023-01-05T08:13:16.042Z,1017
2023-01-05T08:14:16.053Z,1284
2023-01-05T08:15:16.100Z,1528
2023-01-05T08:17:16.243Z,1417
2023-01-05T08:18:16.036Z,1489
2023-01-05T08:19:16.037Z,1313
2023-01-05T08:20:16.051Z,1782
2023-01-05T08:22:16.230Z,1329
2023-01-05T08:23:25.483Z,1787
2023-01-05T08:24:16.081Z,1766
2023-01-05T08:25:16.059Z,1397
2023-01-05T08:27:16.294Z,1138
2023-01-05T08:28:16.048Z,1688
2023-01-05T08:29:16.074Z,1277
2023-01-05T08:30:16.120Z,1373
2023-01-05T08:32:16.308Z,1329
2023-01-05T08:33:16.140Z,1540
2023-01-05T08:34:16.122Z,1679
2023-01-05T08:35:16.109Z,1307
2023-01-05T08:37:16.262Z,1627
2023-01-05T08:38:16.128Z,1248
2023-01-05T08:39:16.109Z,1592
2023-01-05T08:40:16.112Z,1822
2023-01-05T08:42:16.304Z,1859
2023-01-05T08:43:16.153Z,1662
2023-01-05T08:44:16.098Z,1251
2023-01-05T08:45:16.093Z,1771
2023-01-05T08:47:18.235Z,1393
2023-01-05T08:48:16.089Z,1885
2023-01-05T08:49:16.056Z,1840
2023-01-05T08:50:16.060Z,1421
2023-01-05T08:52:16.238Z,1776
2023-01-05T08:53:16.064Z,1336
2023-01-05T08:54:16.067Z,1606
2023-01-05T08:55:16.075Z,1662
2023-01-05T08:57:16.263Z,1911
2023-01-05T08:58:16.067Z,1792
2023-01-05T08:59:16.063Z,1277
2023-01-05T09:00:16.115Z,1500
2023-01-05T09:02:21.740Z,1373
2023-01-05T09:03:16.141Z,1482
2023-01-05T09:04:16.072Z,1827
2023-01-05T09:05:16.128Z,1787
2023-01-05T09:07:16.293Z,2311
2023-01-05T09:08:16.122Z,1508
2023-01-05T09:09:16.125Z,2216
2023-01-05T09:10:16.120Z,1831
2023-01-05T09:12:16.270Z,1787
2023-01-05T09:13:16.129Z,1697
2023-01-05T09:14:16.157Z,1393
2023-01-05T09:15:16.130Z,1782
2023-01-05T09:17:16.338Z,1345
2023-01-05T09:18:16.149Z,1679
2023-01-05T09:19:16.177Z,1850
2023-01-05T09:20:16.131Z,1540
2023-01-05T09:22:16.275Z,1740
2023-01-05T09:23:16.088Z,1359
2023-01-05T09:24:16.101Z,1776
2023-01-05T09:25:16.073Z,1822
2023-01-05T09:27:16.247Z,1528
2023-01-05T09:28:16.077Z,2027
2023-01-05T09:29:16.074Z,1429
2023-01-05T09:30:16.125Z,2150
2023-01-05T09:32:16.291Z,1199
2023-01-05T09:33:16.082Z,1920
2023-01-05T09:34:16.128Z,2305
2023-01-05T09:35:16.071Z,1393
2023-01-05T09:37:16.281Z,1831
2023-01-05T09:38:16.071Z,1562
2023-01-05T09:39:16.072Z,2106
2023-01-05T09:40:16.081Z,1831
2023-01-05T09:42:16.358Z,1596
2023-01-05T09:43:16.080Z,1869
2023-01-05T09:44:16.143Z,1455
2023-01-05T09:45:16.144Z,1045
2023-01-05T09:47:16.333Z,1684
2023-01-05T09:48:16.143Z,1303
2023-01-05T09:49:16.140Z,1748
2023-01-05T09:50:16.145Z,1726
2023-01-05T09:52:16.296Z,1389
2023-01-05T09:53:16.133Z,1697
2023-01-05T09:54:16.089Z,1771
2023-01-05T09:55:16.127Z,1692
2023-01-05T09:57:16.332Z,2100
2023-01-05T09:58:16.134Z,1517
2023-01-05T09:59:16.148Z,1610
2023-01-05T10:00:16.139Z,1303
2023-01-05T10:02:16.341Z,1486
2023-01-05T10:03:36.973Z,1255
2023-01-05T10:04:16.192Z,1644
2023-01-05T10:05:16.229Z,1583
2023-01-05T10:07:16.292Z,1736
2023-01-05T10:08:16.154Z,1666
2023-01-05T10:09:16.090Z,1720
2023-01-05T10:10:16.112Z,1644
2023-01-05T10:12:16.272Z,1577
2023-01-05T10:13:16.092Z,1370
2023-01-05T10:14:16.112Z,1911
2023-01-05T10:15:16.093Z,1720
2023-01-05T10:17:40.281Z,1911
2023-01-05T10:18:16.087Z,1679
2023-01-05T10:19:16.152Z,1264
2023-01-05T10:20:16.151Z,1662
2023-01-05T10:22:16.299Z,1489
2023-01-05T10:23:16.163Z,1504
2023-01-05T10:24:16.149Z,1211
2023-01-05T10:25:16.165Z,1459
2023-01-05T10:27:25.329Z,1081
2023-01-05T10:28:16.184Z,1753
2023-01-05T10:29:16.153Z,1644
2023-01-05T10:30:16.159Z,1287
2023-01-05T10:32:16.306Z,1577
2023-01-05T10:33:27.552Z,1840
2023-01-05T10:34:16.591Z,1845
2023-01-05T10:35:34.146Z,1226
2023-01-05T10:37:16.309Z,1592
2023-01-05T10:38:16.158Z,1149
2023-01-05T10:39:16.132Z,1470
2023-01-05T10:40:16.176Z,1562
2023-01-05T10:42:16.296Z,1466
2023-01-05T10:43:16.097Z,1219
2023-01-05T10:44:16.110Z,1603
2023-01-05T10:45:16.115Z,1536
2023-01-05T10:47:16.298Z,1573
2023-01-05T10:48:16.109Z,1577
2023-01-05T10:49:16.116Z,1172
2023-01-05T10:50:16.125Z,1606
2023-01-05T10:52:16.303Z,1270
2023-01-05T10:53:16.143Z,1470
2023-01-05T10:54:16.110Z,1421
2023-01-05T10:55:16.117Z,1207
2023-01-05T10:57:16.316Z,1202
2023-01-05T10:58:16.159Z,1596
2023-01-05T10:59:16.164Z,1226
2023-01-05T11:00:16.166Z,1631
2023-01-05T11:02:16.429Z,1303
2023-01-05T11:03:16.165Z,1352
2023-01-05T11:04:34.797Z,1373
2023-01-05T11:05:16.238Z,1146
2023-01-05T11:07:16.304Z,1277
2023-01-05T11:08:16.173Z,1521
2023-01-05T11:09:20.263Z,1549
2023-01-05T11:10:16.162Z,1274
2023-01-05T11:12:16.302Z,1204
2023-01-05T11:13:16.120Z,1504
2023-01-05T11:14:16.114Z,1245
2023-01-05T11:15:16.127Z,1508
2023-01-05T11:17:16.289Z,1463
2023-01-05T11:18:16.110Z,1513
2023-01-05T11:19:16.126Z,987
2023-01-05T11:20:16.112Z,1558
2023-01-05T11:22:16.283Z,1373
2023-01-05T11:23:16.113Z,1229
2023-01-05T11:24:16.121Z,1063
2023-01-05T11:25:16.142Z,1320
2023-01-05T11:27:16.347Z,1320
2023-01-05T11:28:16.136Z,954
2023-01-05T11:29:16.129Z,1232
2023-01-05T11:30:16.138Z,1169
2023-01-05T11:32:16.311Z,1397
2023-01-05T11:33:19.903Z,1104
2023-01-05T11:34:16.119Z,1377
2023-01-05T11:35:16.117Z,1063
2023-01-05T11:37:16.322Z,997
2023-01-05T11:38:16.140Z,1356
2023-01-05T11:39:16.126Z,1264
2023-01-05T11:40:16.125Z,1303
2023-01-05T11:42:21.704Z,1489
2023-01-05T11:43:16.196Z,1385
2023-01-05T11:44:16.185Z,1045
2023-01-05T11:45:16.187Z,1096
2023-01-05T11:47:16.334Z,1248
2023-01-05T11:48:16.184Z,857
2023-01-05T11:49:16.195Z,909
2023-01-05T11:50:16.270Z,1204
2023-01-05T11:52:16.321Z,1037
2023-01-05T11:53:16.213Z,919
2023-01-05T11:54:16.183Z,1193
2023-01-05T11:55:16.189Z,1440
2023-01-05T11:57:16.359Z,1356
2023-01-05T11:58:16.141Z,1222
2023-01-05T11:59:16.136Z,980
2023-01-05T12:00:16.193Z,1297
2023-01-05T12:02:16.349Z,1345
2023-01-05T12:03:16.201Z,933
2023-01-05T12:04:16.210Z,959
2023-01-05T12:05:16.203Z,716
2023-01-05T12:07:16.354Z,950
2023-01-05T12:08:16.164Z,940
2023-01-05T12:09:16.229Z,1199
2023-01-05T12:10:16.135Z,811
2023-01-05T12:12:16.334Z,1138
2023-01-05T12:13:16.138Z,857
2023-01-05T12:14:16.194Z,1063
2023-01-05T12:15:16.187Z,1029
2023-01-05T12:17:16.364Z,1012
2023-01-05T12:18:16.232Z,896
2023-01-05T12:19:16.204Z,1204
2023-01-05T12:20:16.141Z,762
2023-01-05T12:22:16.368Z,1146
2023-01-05T12:23:16.142Z,933
2023-01-05T12:24:16.142Z,1164
2023-01-05T12:25:16.146Z,1124
2023-01-05T12:27:16.318Z,899
2023-01-05T12:28:24.007Z,1113
2023-01-05T12:34:16.215Z,1078
2023-01-05T12:35:16.239Z,787
2023-01-05T12:37:16.429Z,1186
2023-01-05T12:38:16.236Z,1219
2023-01-05T12:39:16.203Z,1261
2023-01-05T12:40:16.185Z,1085
2023-01-05T12:42:16.380Z,811
2023-01-05T12:43:16.165Z,995
2023-01-05T12:44:16.145Z,935
2023-01-05T12:45:16.160Z,1007
2023-01-05T12:47:16.366Z,843
2023-01-05T12:48:16.204Z,878
2023-01-05T12:49:16.178Z,799
2023-01-05T12:50:16.157Z,1121
2023-01-05T12:52:16.355Z,590
2023-01-05T12:53:16.208Z,770
2023-01-05T12:54:16.159Z,935
2023-01-05T12:55:16.151Z,711
2023-01-05T12:57:16.348Z,811
2023-01-05T12:58:16.213Z,945
2023-01-05T12:59:16.196Z,791
2023-01-05T13:00:16.147Z,985
2023-01-05T13:02:16.440Z,995
2023-01-05T13:03:16.160Z,714
2023-01-05T13:04:16.172Z,869
2023-01-05T13:05:16.159Z,700
2023-01-05T13:07:16.363Z,518
2023-01-05T13:08:16.225Z,826
2023-01-05T13:09:16.243Z,1053
2023-01-05T13:10:16.248Z,876
2023-01-05T13:12:16.356Z,1050
2023-01-05T13:13:16.226Z,1042
2023-01-05T13:14:16.180Z,1085
2023-01-05T13:15:16.182Z,1060
2023-01-05T13:17:16.372Z,787
2023-01-05T13:18:16.248Z,1116
2023-01-05T13:19:16.219Z,1377
2023-01-05T13:20:16.213Z,1072
2023-01-05T13:22:16.370Z,760
2023-01-05T13:23:16.227Z,799
2023-01-05T13:24:16.223Z,686
2023-01-05T13:25:16.219Z,911
2023-01-05T13:27:16.381Z,921
2023-01-05T13:28:16.227Z,969
2023-01-05T13:29:16.230Z,921
2023-01-05T13:30:16.220Z,971
2023-01-05T13:32:16.387Z,969
2023-01-05T13:33:16.241Z,1226
2023-01-05T13:34:16.242Z,1130
2023-01-05T13:35:16.293Z,1113
2023-01-05T13:37:16.348Z,1274
2023-01-05T13:38:16.183Z,1066
2023-01-05T13:39:16.173Z,1017
2023-01-05T13:40:16.185Z,1329
2023-01-05T13:42:16.362Z,1425
2023-01-05T13:43:16.177Z,1149
2023-01-05T13:44:16.197Z,1640
2023-01-05T13:45:16.213Z,1653
2023-01-05T13:47:16.654Z,1808
2023-01-05T13:49:16.185Z,1085
2023-01-05T13:50:16.176Z,1596
2023-01-05T13:52:16.384Z,995
2023-01-05T13:53:16.238Z,1627
2023-01-05T13:54:16.253Z,1726
2023-01-05T13:55:24.907Z,1180
2023-01-05T13:57:16.384Z,2140
2023-01-05T13:58:16.179Z,1596
2023-01-05T13:59:19.534Z,1592
2023-01-05T14:00:16.242Z,1753
2023-01-05T14:02:16.479Z,1525
2023-01-05T14:03:16.236Z,1482
2023-01-05T14:04:16.253Z,1255
2023-01-05T14:05:16.237Z,1091
2023-01-05T14:07:16.388Z,1451
2023-01-05T14:08:16.239Z,969
2023-01-05T14:09:16.277Z,1270
2023-01-05T14:10:16.237Z,1149
2023-01-05T14:12:16.431Z,1303
2023-01-05T14:13:16.185Z,947
2023-01-05T14:14:16.187Z,1177
2023-01-05T14:15:16.188Z,947
2023-01-05T14:17:16.387Z,1222
2023-01-05T14:18:16.277Z,1102
2023-01-05T14:19:16.276Z,1385
2023-01-05T14:20:16.261Z,1414
2023-01-05T14:22:16.399Z,1429
2023-01-05T14:23:16.209Z,1389
2023-01-05T14:24:16.265Z,950
2023-01-05T14:25:16.198Z,1493
2023-01-05T14:27:16.373Z,1183
2023-01-05T14:28:16.235Z,1414
2023-01-05T14:29:16.186Z,1345
2023-01-05T14:30:16.200Z,1093
2023-01-05T14:32:16.386Z,1149
2023-01-05T14:33:16.184Z,1451
2023-01-05T14:34:16.247Z,1274
2023-01-05T14:35:16.272Z,1662
2023-01-05T14:37:16.381Z,1238
2023-01-05T14:38:16.198Z,1174
2023-01-05T14:39:16.192Z,1697
2023-01-05T14:40:16.203Z,1268
2023-01-05T14:42:16.399Z,1500
2023-01-05T14:43:16.256Z,1627
2023-01-05T14:44:16.246Z,1662
2023-01-05T14:45:16.198Z,1564
2023-01-05T14:47:16.446Z,1401
2023-01-05T14:48:16.278Z,1124
2023-01-05T14:49:16.204Z,1675
2023-01-05T14:50:16.195Z,1264
2023-01-05T14:52:16.424Z,1219
2023-01-05T14:53:16.257Z,1329
2023-01-05T14:54:16.250Z,1389
2023-01-05T14:55:24.132Z,1610
2023-01-05T14:57:16.385Z,2270
2023-01-05T14:58:16.198Z,1444
2023-01-05T14:59:16.251Z,2344
2023-01-05T15:00:16.198Z,1662
2023-01-05T15:02:16.410Z,1540
2023-01-05T15:03:16.197Z,1385
2023-01-05T15:04:16.223Z,1127
2023-01-05T15:05:16.216Z,1432
2023-01-05T15:07:16.383Z,1245
2023-01-05T15:08:16.193Z,1088
2023-01-05T15:09:16.201Z,1592
2023-01-05T15:10:16.219Z,1558
2023-01-05T15:12:16.395Z,1313
2023-01-05T15:13:16.207Z,1389
2023-01-05T15:14:16.243Z,1363
2023-01-05T15:15:16.199Z,1002
2023-01-05T15:17:16.386Z,1316
2023-01-05T15:18:16.210Z,1562
2023-01-05T15:19:16.226Z,1381
2023-01-05T15:20:16.206Z,1345
2023-01-05T15:22:30.508Z,1493
2023-01-05T15:23:16.207Z,1577
2023-01-05T15:24:16.274Z,1528
2023-01-05T15:25:16.275Z,1130
2023-01-05T15:27:16.504Z,1666
2023-01-05T15:28:16.205Z,1496
2023-01-05T15:29:16.263Z,1675
2023-01-05T15:30:16.278Z,1504
2023-01-05T15:32:16.435Z,1553
2023-01-05T15:33:16.264Z,1545
2023-01-05T15:34:16.309Z,1255
2023-01-05T15:35:16.281Z,1614
2023-01-05T15:37:16.421Z,1808
2023-01-05T15:38:16.278Z,1332
2023-01-05T15:39:16.322Z,1679
2023-01-05T15:40:16.312Z,1679
2023-01-05T15:42:16.502Z,1255
2023-01-05T15:43:16.285Z,1911
2023-01-05T15:44:16.296Z,1366
2023-01-05T15:45:16.304Z,1688
2023-01-05T15:47:16.405Z,2106
2023-01-05T15:48:16.243Z,1401
2023-01-05T15:49:16.234Z,1627
2023-01-05T15:50:16.233Z,2022
2023-01-05T15:52:16.403Z,2001
2023-01-05T15:53:16.227Z,1771
2023-01-05T15:54:16.229Z,1583
2023-01-05T15:55:16.311Z,1313
2023-01-05T15:57:16.420Z,2106
2023-01-05T15:58:16.244Z,2106
2023-01-05T15:59:16.282Z,2263
2023-01-05T16:00:16.283Z,2591
2023-01-05T16:02:16.453Z,2210
2023-01-05T16:03:16.283Z,1500
2023-01-05T16:04:16.293Z,2205
2023-01-05T16:05:16.230Z,1303
2023-01-05T16:07:16.414Z,1470
2023-01-05T16:08:16.319Z,1229
2023-01-05T16:09:16.225Z,1635
2023-01-05T16:10:16.219Z,1631
2023-01-05T16:12:16.423Z,1329
2023-01-05T16:13:16.240Z,1207
2023-01-05T16:14:16.252Z,1370
2023-01-05T16:15:16.233Z,1158
2023-01-05T16:17:16.473Z,1715
2023-01-05T16:18:16.231Z,1444
2023-01-05T16:19:16.316Z,1081
2023-01-05T16:20:16.286Z,1385
2023-01-05T16:22:16.431Z,1373
2023-01-05T16:23:16.235Z,1294
2023-01-05T16:24:16.223Z,1587
2023-01-05T16:25:16.242Z,1684
2023-01-05T16:27:16.434Z,1359
2023-01-05T16:28:16.249Z,1606
2023-01-05T16:29:16.223Z,1303
2023-01-05T16:30:16.234Z,1603
2023-01-05T16:32:16.441Z,1345
2023-01-05T16:33:16.318Z,1072
2023-01-05T16:34:16.236Z,1385
2023-01-05T16:35:16.249Z,1440
2023-01-05T16:37:16.415Z,1532
2023-01-05T16:38:16.229Z,1444
2023-01-05T16:39:16.285Z,1058
2023-01-05T16:40:16.284Z,1592
2023-01-05T16:42:16.424Z,1110
2023-01-05T16:43:16.253Z,1316
2023-01-05T16:44:16.275Z,1284
2023-01-05T16:45:16.254Z,995
2023-01-05T16:47:16.444Z,1268
2023-01-05T16:48:16.287Z,1329
2023-01-05T16:49:16.249Z,1196